Aglaitsa — SW2071 — position and weather

sailwx.info

Track history (hours):
 
Tides and Currents Weather Stations Pressure Air Temp Water Temp Dewpoint Dewpoint Depression Visibility Wind Speed Wind Dir Waves Ship Positions

Aglaitsa

Last reported at 2018-Jun-18 22:17 UTC. Time now 2018-Jun-20 07:52 UTC.
Position N 40°27' E 024°02'.

Length 17 m; draft 2.3 m.

Type: Fishing. MMSI: 239020000.

Date/timePositionNaut miles runAvg speedWind from/ knotsBaromVisibWave heightAir tempDewpointWater temp
2018-Jun-18 22:17N 40°27' E 024°02'3 9.8
2018-Jun-18 21:59N 40°26' E 024°04'5 9.9
2018-Jun-18 21:28N 40°22' E 024°10'510.0
2018-Jun-18 21:00N 40°20' E 024°15'0 0.8
2018-Jun-18 20:30N 40°20' E 024°15'0 0.6
2018-Jun-18 19:57N 40°19' E 024°16'0 1.0
2018-Jun-18 19:30N 40°19' E 024°16'1 0.8
2018-Jun-18 18:52N 40°19' E 024°16'1 1.7
2018-Jun-18 18:29N 40°19' E 024°17'4 0.3
2018-Jun-18 05:03N 40°20' E 024°13'1 9.5
2018-Jun-18 04:59N 40°20' E 024°13'4 9.2
2018-Jun-18 04:30N 40°17' E 024°18'0 0.5
2018-Jun-18 04:00N 40°17' E 024°18'0 0.1
2018-Jun-18 03:30N 40°17' E 024°18'0 0.1
2018-Jun-18 03:00N 40°17' E 024°18'0 0.1
2018-Jun-18 02:30N 40°17' E 024°18'0 0.3
2018-Jun-18 02:00N 40°17' E 024°18'0 0.2
2018-Jun-18 01:29N 40°17' E 024°18'1 1.0
2018-Jun-18 00:59N 40°17' E 024°18'3 5.8
2018-Jun-18 00:30N 40°15' E 024°20'5 9.4
2018-Jun-18 00:00N 40°11' E 024°24'7 6.5
2018-Jun-17 22:58N 40°08' E 024°16'  
2018-Jun-14 20:24N 40°20' E 023°46'0 0.0
2018-Jun-14 19:53N 40°20' E 023°46'0 0.1
2018-Jun-14 19:30N 40°20' E 023°46'2 3.1
2018-Jun-14 18:59N 40°20' E 023°49'1 2.0
2018-Jun-14 18:22N 40°20' E 023°50'15 9.8
2018-Jun-14 16:52N 40°13' E 024°07'5 9.7
2018-Jun-14 16:20N 40°10' E 024°12'9 7.5
2018-Jun-14 15:05N 40°10' E 024°24'110.3
2018-Jun-14 14:59N 40°11' E 024°24'5 9.9
2018-Jun-14 14:29N 40°16' E 024°22'19 9.7
2018-Jun-14 12:30N 40°35' E 024°21'5 9.7
2018-Jun-14 12:00N 40°40' E 024°21'5 9.9
2018-Jun-14 11:30N 40°45' E 024°20'5 9.5
2018-Jun-14 11:00N 40°50' E 024°21'2 1.5
2018-Jun-14 09:55N 40°51' E 024°19'0 0.0
2018-Jun-14 09:29N 40°51' E 024°19'0 0.0
2018-Jun-14 09:00N 40°51' E 024°19'0 0.0
2018-Jun-14 08:30N 40°51' E 024°19'0 0.0
2018-Jun-14 07:53N 40°51' E 024°19'0 0.0
2018-Jun-14 06:43N 40°51' E 024°19'0 0.0
2018-Jun-14 06:27N 40°51' E 024°19'0 0.0
2018-Jun-14 06:00N 40°51' E 024°19'0 0.0
2018-Jun-14 05:29N 40°51' E 024°19'0 0.0
2018-Jun-14 05:00N 40°51' E 024°19'0 0.0
2018-Jun-14 04:30N 40°51' E 024°19'0 0.0
2018-Jun-14 04:00N 40°51' E 024°19'0 0.0
2018-Jun-14 03:30N 40°51' E 024°19'0 0.0
2018-Jun-14 03:00N 40°51' E 024°19'0 0.0
2018-Jun-14 02:30N 40°51' E 024°19'0 0.0
2018-Jun-14 02:00N 40°51' E 024°19'0 0.0
2018-Jun-14 01:30N 40°51' E 024°19'0 0.0
2018-Jun-14 00:59N 40°51' E 024°19'0 0.0
2018-Jun-14 00:30N 40°51' E 024°19'0 0.0
2018-Jun-14 00:00N 40°51' E 024°19'0 0.0
2018-Jun-13 23:27N 40°51' E 024°19'0 0.0
2018-Jun-13 22:59N 40°51' E 024°19'3 7.1
2018-Jun-13 22:30N 40°48' E 024°20'5 9.8
2018-Jun-13 22:00N 40°43' E 024°17'5 9.6
2018-Jun-13 21:30N 40°39' E 024°14'1 2.0
2018-Jun-13 20:57N 40°38' E 024°13'0 0.5
2018-Jun-13 20:30N 40°38' E 024°12'1 1.3
2018-Jun-13 20:00N 40°38' E 024°11'0 0.0
2018-Jun-13 18:46N 40°38' E 024°11'0 0.2
2018-Jun-13 18:30N 40°38' E 024°11'0 0.3
2018-Jun-13 18:00N 40°38' E 024°12'  
2018-Jun-10 18:13N 40°27' E 024°12'3 9.4
2018-Jun-10 17:54N 40°30' E 024°13'4 9.4
2018-Jun-10 17:29N 40°34' E 024°14'5 9.7
2018-Jun-10 16:59N 40°39' E 024°16'5 9.8
2018-Jun-10 16:30N 40°43' E 024°18'5 9.7
2018-Jun-10 15:59N 40°48' E 024°20'3 6.4
2018-Jun-10 15:30N 40°51' E 024°19'0 0.0
2018-Jun-10 15:00N 40°51' E 024°19'0 0.0
2018-Jun-10 14:00N 40°51' E 024°19'0 0.0
2018-Jun-10 09:33N 40°51' E 024°19'0 4.3
2018-Jun-10 09:30N 40°51' E 024°19'0 0.2
2018-Jun-10 09:00N 40°51' E 024°19'0 0.0
2018-Jun-10 08:30N 40°51' E 024°19'0 0.0
2018-Jun-10 08:00N 40°51' E 024°19'0 0.0
2018-Jun-10 07:30N 40°51' E 024°19'0 0.0
2018-Jun-10 07:00N 40°51' E 024°19'0 0.0
2018-Jun-10 06:30N 40°51' E 024°19'0 0.0
2018-Jun-10 06:00N 40°51' E 024°19'3 6.7
2018-Jun-10 05:30N 40°47' E 024°19'5 9.0
2018-Jun-10 05:00N 40°43' E 024°18'5 9.3
2018-Jun-10 04:30N 40°39' E 024°16'5 9.6
2018-Jun-10 04:00N 40°34' E 024°14'5 9.7
2018-Jun-10 03:30N 40°30' E 024°11'4 5.9
2018-Jun-10 02:51N 40°26' E 024°10'0 0.6
2018-Jun-10 02:19N 40°26' E 024°10'0 0.5
2018-Jun-10 01:30N 40°26' E 024°10'0 0.3
2018-Jun-10 00:59N 40°26' E 024°11'0 0.3
2018-Jun-10 00:30N 40°26' E 024°11'1 1.3
2018-Jun-10 00:00N 40°26' E 024°11'0 0.0
2018-Jun-09 23:30N 40°26' E 024°11'0 0.1
2018-Jun-09 22:57N 40°26' E 024°11'0 0.0
2018-Jun-09 22:24N 40°26' E 024°11'0 0.0
2018-Jun-09 22:00N 40°26' E 024°11'0 0.0
2018-Jun-09 21:30N 40°26' E 024°11'0 0.1
2018-Jun-09 21:00N 40°26' E 024°11'0 0.0
2018-Jun-09 20:30N 40°26' E 024°11'0 0.0
2018-Jun-09 19:59N 40°26' E 024°11'2 3.2
2018-Jun-09 19:18N 40°28' E 024°11'3 9.5
2018-Jun-09 18:59N 40°31' E 024°13'2 3.6
2018-Jun-09 18:30N 40°32' E 024°13'5 6.8
2018-Jun-09 17:45N 40°37' E 024°15'3 9.6
2018-Jun-09 17:23N 40°41' E 024°16'4 9.8
2018-Jun-09 17:00N 40°44' E 024°18'5 9.9
2018-Jun-09 16:30N 40°49' E 024°20'1 2.6
2018-Jun-09 16:00N 40°50' E 024°20'1 1.0
2018-Jun-09 15:00N 40°51' E 024°19'0 0.0
2018-Jun-09 14:30N 40°51' E 024°19'0 0.0
2018-Jun-09 14:00N 40°51' E 024°19'0 0.0
2018-Jun-09 13:30N 40°51' E 024°19'0 0.0
2018-Jun-09 13:00N 40°51' E 024°19'0 0.0
2018-Jun-09 12:30N 40°51' E 024°19'0 0.0
2018-Jun-09 12:00N 40°51' E 024°19'0 0.0
2018-Jun-09 11:30N 40°51' E 024°19'0 0.0
2018-Jun-09 11:00N 40°51' E 024°19'0 0.0
2018-Jun-09 10:30N 40°51' E 024°19'0 0.0
2018-Jun-09 10:00N 40°51' E 024°19'0 0.0
2018-Jun-09 09:30N 40°51' E 024°19'0 0.0
2018-Jun-09 09:00N 40°51' E 024°19'0 0.0
2018-Jun-09 08:30N 40°51' E 024°19'0 0.0
2018-Jun-09 08:00N 40°51' E 024°19'0 0.0
2018-Jun-09 07:30N 40°51' E 024°19'0 0.0
2018-Jun-09 07:00N 40°51' E 024°19'0 0.0
2018-Jun-09 06:28N 40°51' E 024°19'0 0.0
2018-Jun-09 06:00N 40°51' E 024°19'0 0.0
2018-Jun-09 05:30N 40°51' E 024°19'0 0.0
2018-Jun-09 05:00N 40°51' E 024°19'0 0.0
2018-Jun-09 04:30N 40°51' E 024°19'0 0.0
2018-Jun-09 04:00N 40°51' E 024°19'0 0.0
2018-Jun-09 03:30N 40°51' E 024°19'0 0.0
2018-Jun-09 03:00N 40°51' E 024°19'0 0.0
2018-Jun-09 02:30N 40°51' E 024°19'1 1.7
2018-Jun-09 02:00N 40°50' E 024°20'5 9.2
2018-Jun-09 01:27N 40°45' E 024°22'4 8.9
2018-Jun-09 01:00N 40°41' E 024°23'4 8.1
2018-Jun-09 00:29N 40°37' E 024°23'1 1.3
2018-Jun-09 00:00N 40°37' E 024°22'1 1.2
2018-Jun-08 23:29N 40°37' E 024°23'0 0.2
2018-Jun-08 23:00N 40°37' E 024°23'4 7.3
2018-Jun-08 22:30N 40°37' E 024°27'  
Track history (hours):
 
Tides and Currents Weather Stations Pressure Air Temp Water Temp Dewpoint Dewpoint Depression Visibility Wind Speed Wind Dir Waves Ship Positions

Aglaitsa

Last reported at 2018-Jun-18 22:17 UTC. Time now 2018-Jun-20 07:52 UTC.
Position N 40°27' E 024°02'.

Length 17 m; draft 2.3 m.

Type: Fishing. MMSI: 239020000.

Date/timePositionNaut miles runAvg speedWind from/ knotsBaromVisibWave heightAir tempDewpointWater temp
2018-Jun-18 22:17N 40°27' E 024°02'3 9.8
2018-Jun-18 21:59N 40°26' E 024°04'5 9.9
2018-Jun-18 21:28N 40°22' E 024°10'510.0
2018-Jun-18 21:00N 40°20' E 024°15'0 0.8
2018-Jun-18 20:30N 40°20' E 024°15'0 0.6
2018-Jun-18 19:57N 40°19' E 024°16'0 1.0
2018-Jun-18 19:30N 40°19' E 024°16'1 0.8
2018-Jun-18 18:52N 40°19' E 024°16'1 1.7
2018-Jun-18 18:29N 40°19' E 024°17'4 0.3
2018-Jun-18 05:03N 40°20' E 024°13'1 9.5
2018-Jun-18 04:59N 40°20' E 024°13'4 9.2
2018-Jun-18 04:30N 40°17' E 024°18'0 0.5
2018-Jun-18 04:00N 40°17' E 024°18'0 0.1
2018-Jun-18 03:30N 40°17' E 024°18'0 0.1
2018-Jun-18 03:00N 40°17' E 024°18'0 0.1
2018-Jun-18 02:30N 40°17' E 024°18'0 0.3
2018-Jun-18 02:00N 40°17' E 024°18'0 0.2
2018-Jun-18 01:29N 40°17' E 024°18'1 1.0
2018-Jun-18 00:59N 40°17' E 024°18'3 5.8
2018-Jun-18 00:30N 40°15' E 024°20'5 9.4
2018-Jun-18 00:00N 40°11' E 024°24'7 6.5
2018-Jun-17 22:58N 40°08' E 024°16'  
2018-Jun-14 20:24N 40°20' E 023°46'0 0.0
2018-Jun-14 19:53N 40°20' E 023°46'0 0.1
2018-Jun-14 19:30N 40°20' E 023°46'2 3.1
2018-Jun-14 18:59N 40°20' E 023°49'1 2.0
2018-Jun-14 18:22N 40°20' E 023°50'15 9.8
2018-Jun-14 16:52N 40°13' E 024°07'5 9.7
2018-Jun-14 16:20N 40°10' E 024°12'9 7.5
2018-Jun-14 15:05N 40°10' E 024°24'110.3
2018-Jun-14 14:59N 40°11' E 024°24'5 9.9
2018-Jun-14 14:29N 40°16' E 024°22'19 9.7
2018-Jun-14 12:30N 40°35' E 024°21'5 9.7
2018-Jun-14 12:00N 40°40' E 024°21'5 9.9
2018-Jun-14 11:30N 40°45' E 024°20'5 9.5
2018-Jun-14 11:00N 40°50' E 024°21'2 1.5
2018-Jun-14 09:55N 40°51' E 024°19'0 0.0
2018-Jun-14 09:29N 40°51' E 024°19'0 0.0
2018-Jun-14 09:00N 40°51' E 024°19'0 0.0
2018-Jun-14 08:30N 40°51' E 024°19'0 0.0
2018-Jun-14 07:53N 40°51' E 024°19'0 0.0
2018-Jun-14 06:43N 40°51' E 024°19'0 0.0
2018-Jun-14 06:27N 40°51' E 024°19'0 0.0
2018-Jun-14 06:00N 40°51' E 024°19'0 0.0
2018-Jun-14 05:29N 40°51' E 024°19'0 0.0
2018-Jun-14 05:00N 40°51' E 024°19'0 0.0
2018-Jun-14 04:30N 40°51' E 024°19'0 0.0
2018-Jun-14 04:00N 40°51' E 024°19'0 0.0
2018-Jun-14 03:30N 40°51' E 024°19'0 0.0
2018-Jun-14 03:00N 40°51' E 024°19'0 0.0
2018-Jun-14 02:30N 40°51' E 024°19'0 0.0
2018-Jun-14 02:00N 40°51' E 024°19'0 0.0
2018-Jun-14 01:30N 40°51' E 024°19'0 0.0
2018-Jun-14 00:59N 40°51' E 024°19'0 0.0
2018-Jun-14 00:30N 40°51' E 024°19'0 0.0
2018-Jun-14 00:00N 40°51' E 024°19'0 0.0
2018-Jun-13 23:27N 40°51' E 024°19'0 0.0
2018-Jun-13 22:59N 40°51' E 024°19'3 7.1
2018-Jun-13 22:30N 40°48' E 024°20'5 9.8
2018-Jun-13 22:00N 40°43' E 024°17'5 9.6
2018-Jun-13 21:30N 40°39' E 024°14'1 2.0
2018-Jun-13 20:57N 40°38' E 024°13'0 0.5
2018-Jun-13 20:30N 40°38' E 024°12'1 1.3
2018-Jun-13 20:00N 40°38' E 024°11'0 0.0
2018-Jun-13 18:46N 40°38' E 024°11'0 0.2
2018-Jun-13 18:30N 40°38' E 024°11'0 0.3
2018-Jun-13 18:00N 40°38' E 024°12'  
2018-Jun-10 18:13N 40°27' E 024°12'3 9.4
2018-Jun-10 17:54N 40°30' E 024°13'4 9.4
2018-Jun-10 17:29N 40°34' E 024°14'5 9.7
2018-Jun-10 16:59N 40°39' E 024°16'5 9.8
2018-Jun-10 16:30N 40°43' E 024°18'5 9.7
2018-Jun-10 15:59N 40°48' E 024°20'3 6.4
2018-Jun-10 15:30N 40°51' E 024°19'0 0.0
2018-Jun-10 15:00N 40°51' E 024°19'0 0.0
2018-Jun-10 14:00N 40°51' E 024°19'0 0.0
2018-Jun-10 09:33N 40°51' E 024°19'0 4.3
2018-Jun-10 09:30N 40°51' E 024°19'0 0.2
2018-Jun-10 09:00N 40°51' E 024°19'0 0.0
2018-Jun-10 08:30N 40°51' E 024°19'0 0.0
2018-Jun-10 08:00N 40°51' E 024°19'0 0.0
2018-Jun-10 07:30N 40°51' E 024°19'0 0.0
2018-Jun-10 07:00N 40°51' E 024°19'0 0.0
2018-Jun-10 06:30N 40°51' E 024°19'0 0.0
2018-Jun-10 06:00N 40°51' E 024°19'3 6.7
2018-Jun-10 05:30N 40°47' E 024°19'5 9.0
2018-Jun-10 05:00N 40°43' E 024°18'5 9.3
2018-Jun-10 04:30N 40°39' E 024°16'5 9.6
2018-Jun-10 04:00N 40°34' E 024°14'5 9.7
2018-Jun-10 03:30N 40°30' E 024°11'4 5.9
2018-Jun-10 02:51N 40°26' E 024°10'0 0.6
2018-Jun-10 02:19N 40°26' E 024°10'0 0.5
2018-Jun-10 01:30N 40°26' E 024°10'0 0.3
2018-Jun-10 00:59N 40°26' E 024°11'0 0.3
2018-Jun-10 00:30N 40°26' E 024°11'1 1.3
2018-Jun-10 00:00N 40°26' E 024°11'0 0.0
2018-Jun-09 23:30N 40°26' E 024°11'0 0.1
2018-Jun-09 22:57N 40°26' E 024°11'0 0.0
2018-Jun-09 22:24N 40°26' E 024°11'0 0.0
2018-Jun-09 22:00N 40°26' E 024°11'0 0.0
2018-Jun-09 21:30N 40°26' E 024°11'0 0.1
2018-Jun-09 21:00N 40°26' E 024°11'0 0.0
2018-Jun-09 20:30N 40°26' E 024°11'0 0.0
2018-Jun-09 19:59N 40°26' E 024°11'2 3.2
2018-Jun-09 19:18N 40°28' E 024°11'3 9.5
2018-Jun-09 18:59N 40°31' E 024°13'2 3.6
2018-Jun-09 18:30N 40°32' E 024°13'5 6.8
2018-Jun-09 17:45N 40°37' E 024°15'3 9.6
2018-Jun-09 17:23N 40°41' E 024°16'4 9.8
2018-Jun-09 17:00N 40°44' E 024°18'5 9.9
2018-Jun-09 16:30N 40°49' E 024°20'1 2.6
2018-Jun-09 16:00N 40°50' E 024°20'1 1.0
2018-Jun-09 15:00N 40°51' E 024°19'0 0.0
2018-Jun-09 14:30N 40°51' E 024°19'0 0.0
2018-Jun-09 14:00N 40°51' E 024°19'0 0.0
2018-Jun-09 13:30N 40°51' E 024°19'0 0.0
2018-Jun-09 13:00N 40°51' E 024°19'0 0.0
2018-Jun-09 12:30N 40°51' E 024°19'0 0.0
2018-Jun-09 12:00N 40°51' E 024°19'0 0.0
2018-Jun-09 11:30N 40°51' E 024°19'0 0.0
2018-Jun-09 11:00N 40°51' E 024°19'0 0.0
2018-Jun-09 10:30N 40°51' E 024°19'0 0.0
2018-Jun-09 10:00N 40°51' E 024°19'0 0.0
2018-Jun-09 09:30N 40°51' E 024°19'0 0.0
2018-Jun-09 09:00N 40°51' E 024°19'0 0.0
2018-Jun-09 08:30N 40°51' E 024°19'0 0.0
2018-Jun-09 08:00N 40°51' E 024°19'0 0.0
2018-Jun-09 07:30N 40°51' E 024°19'0 0.0
2018-Jun-09 07:00N 40°51' E 024°19'0 0.0
2018-Jun-09 06:28N 40°51' E 024°19'0 0.0
2018-Jun-09 06:00N 40°51' E 024°19'0 0.0
2018-Jun-09 05:30N 40°51' E 024°19'0 0.0
2018-Jun-09 05:00N 40°51' E 024°19'0 0.0
2018-Jun-09 04:30N 40°51' E 024°19'0 0.0
2018-Jun-09 04:00N 40°51' E 024°19'0 0.0
2018-Jun-09 03:30N 40°51' E 024°19'0 0.0
2018-Jun-09 03:00N 40°51' E 024°19'0 0.0
2018-Jun-09 02:30N 40°51' E 024°19'1 1.7
2018-Jun-09 02:00N 40°50' E 024°20'5 9.2
2018-Jun-09 01:27N 40°45' E 024°22'4 8.9
2018-Jun-09 01:00N 40°41' E 024°23'4 8.1
2018-Jun-09 00:29N 40°37' E 024°23'1 1.3
2018-Jun-09 00:00N 40°37' E 024°22'1 1.2
2018-Jun-08 23:29N 40°37' E 024°23'0 0.2
2018-Jun-08 23:00N 40°37' E 024°23'4 7.3
2018-Jun-08 22:30N 40°37' E 024°27'  

Dump ship's entire track history